This is the latest recevied weather packets stored in our database for station/object IZ1UQG-1. If no packets are shown the sender has not sent any weather packets the latest 10 day(s).
| Time | Temp. | Humidity | Pressure | Rain* | Wind** | Luminosity | Snow |
|---|---|---|---|---|---|---|---|
| 1777901637 | 25° C | 42% | 1015.2 hPa | 173.48 mm | - | - | - |
| 1777901337 | 25° C | 41% | 1015.1 hPa | 179.58 mm | - | - | - |
| 1777901037 | 25° C | 41% | 1015.2 hPa | 183.64 mm | - | - | - |
| 1777900737 | 24.44° C | 41% | 1015.2 hPa | 191.01 mm | - | - | - |
| 1777900437 | 24.44° C | 40% | 1015.3 hPa | 193.04 mm | - | - | - |
| 1777900137 | 24.44° C | 40% | 1015.2 hPa | 187.45 mm | - | - | - |
| 1777899837 | 24.44° C | 39% | 1015.3 hPa | 185.93 mm | - | - | - |
| 1777899537 | 24.44° C | 39% | 1015.5 hPa | 162.05 mm | - | - | - |
| 1777899237 | 24.44° C | 40% | 1015.4 hPa | 208.53 mm | - | - | - |
| 1777898937 | 24.44° C | 40% | 1015.5 hPa | 178.56 mm | - | - | - |
| 1777898637 | 24.44° C | 41% | 1015.5 hPa | 171.96 mm | - | - | - |
| 1777898337 | 24.44° C | 41% | 1015.6 hPa | 169.67 mm | - | - | - |
| 1777898038 | 24.44° C | 42% | 1015.6 hPa | 194.06 mm | - | - | - |
| 1777897737 | 24.44° C | 43% | 1015.6 hPa | 192.02 mm | - | - | - |
| 1777897437 | 24.44° C | 43% | 1015.6 hPa | 177.55 mm | - | - | - |
| 1777897137 | 24.44° C | 41% | 1015.7 hPa | 162.05 mm | - | - | - |
| 1777896837 | 24.44° C | 41% | 1015.8 hPa | 189.48 mm | - | - | - |
| 1777896537 | 23.89° C | 41% | 1015.7 hPa | 186.44 mm | - | - | - |
| 1777896237 | 23.89° C | 40% | 1015.6 hPa | 182.12 mm | - | - | - |
| 1777895937 | 23.89° C | 42% | 1015.7 hPa | 137.67 mm | - | - | - |
| 1777895637 | 23.89° C | 41% | 1015.6 hPa | 197.87 mm | - | - | - |
| 1777895337 | 23.89° C | 39% | 1015.6 hPa | 193.55 mm | - | - | - |
| 1777895037 | 23.89° C | 39% | 1015.7 hPa | 181.1 mm | - | - | - |
| 1777894737 | 23.89° C | 38% | 1015.6 hPa | 198.88 mm | - | - | - |
| 1777894437 | 23.89° C | 39% | 1015.7 hPa | 195.07 mm | - | - | - |
* Rain latest hour (hover to see other rain measurements)
** Current wind speed in m/s (hover to see current wind gust speed)